Time;durP1;ratioP1;P1;durP2;ratioP2;P2;SDS_P1;SDS_P2;PMS_P1;PMS_P2;Temp;Humidity;BMP_temperature;BMP_pressure;BME280_temperature;BME280_humidity;BME280_pressure;Samples;Min_cycle;Max_cycle;Signal;HPM_P1;HPM_P2
2021/11/18 00:04:32;;;;;;;24.95;11.55;;;;;;;6.16;100.00;100920.60;3383878;85;99465;-87
2021/11/18 00:09:34;;;;;;;24.67;10.60;;;;;;;6.15;100.00;100929.91;3390798;85;98963;-87
2021/11/18 00:14:34;;;;;;;22.20;11.23;;;;;;;6.18;100.00;100927.88;3385653;84;99210;-88
2021/11/18 00:19:35;;;;;;;23.07;10.67;;;;;;;6.19;100.00;100923.45;3382170;84;98954;-86
2021/11/18 00:24:36;;;;;;;21.60;10.33;;;;;;;6.23;100.00;100944.08;3365288;85;99106;-87
2021/11/18 00:29:37;;;;;;;20.17;10.32;;;;;;;6.26;100.00;100945.56;3350322;85;98993;-87
2021/11/18 00:34:37;;;;;;;21.40;11.50;;;;;;;6.29;100.00;100944.91;3348483;85;99261;-87
2021/11/18 00:39:38;;;;;;;22.10;11.27;;;;;;;6.33;100.00;100958.70;3351320;86;99105;-87
2021/11/18 00:44:39;;;;;;;20.17;10.57;;;;;;;6.36;100.00;100960.19;3345187;86;98947;-87
2021/11/18 00:49:39;;;;;;;21.63;11.73;;;;;;;6.40;100.00;100961.69;3349907;86;98897;-87
2021/11/18 00:54:40;;;;;;;23.63;11.17;;;;;;;6.42;100.00;100963.50;3349191;86;99396;-87
2021/11/18 00:59:41;;;;;;;23.13;11.17;;;;;;;6.45;100.00;100971.86;3348048;85;98998;-86
2021/11/18 01:04:46;;;;;;;26.40;12.90;;;;;;;6.48;100.00;100973.09;3346945;85;99632;-85
2021/11/18 01:09:47;;;;;;;26.20;11.50;;;;;;;6.49;100.00;100968.66;3362992;85;98948;-86
2021/11/18 01:14:49;;;;;;;21.10;11.20;;;;;;;6.48;100.00;100960.78;3356306;85;98988;-85
2021/11/18 01:19:50;;;;;;;21.77;11.30;;;;;;;6.45;100.00;100973.23;3417929;85;34249;-87
2021/11/18 01:24:50;;;;;;;24.37;11.70;;;;;;;6.42;100.00;100975.80;3395159;84;98925;-86
2021/11/18 01:29:52;;;;;;;23.80;11.93;;;;;;;6.36;100.00;100979.33;3388589;85;99023;-87
2021/11/18 01:34:53;;;;;;;25.23;12.60;;;;;;;6.31;100.00;100978.72;3393350;84;99012;-86
2021/11/18 01:39:53;;;;;;;26.00;12.37;;;;;;;6.28;100.00;100987.02;3389541;85;99043;-87
2021/11/18 01:44:54;;;;;;;28.67;12.03;;;;;;;6.26;100.00;100987.94;3381201;85;98979;-86
2021/11/18 01:49:55;;;;;;;26.40;12.43;;;;;;;6.28;100.00;100987.02;3397625;85;30557;-86
2021/11/18 01:54:56;;;;;;;22.17;11.00;;;;;;;6.30;100.00;100992.16;3384667;84;99269;-85
2021/11/18 01:59:57;;;;;;;21.93;10.70;;;;;;;6.33;100.00;100987.41;3389384;85;99056;-85
2021/11/18 02:05:15;;;;;;;22.50;10.07;;;;;;;6.34;100.00;100987.05;3384630;85;99065;-86
2021/11/18 02:10:31;;;;;;;23.40;10.57;;;;;;;6.38;100.00;100987.20;3391483;85;99130;-87
2021/11/18 02:15:37;;;;;;;23.63;11.27;;;;;;;6.41;100.00;100990.06;3391344;84;99119;-85
2021/11/18 02:20:38;;;;;;;25.25;11.43;;;;;;;6.42;100.00;100983.45;3394735;85;47233;-86
2021/11/18 02:25:39;;;;;;;26.40;11.30;;;;;;;6.44;100.00;100988.59;3363095;85;99109;-85
2021/11/18 02:30:41;;;;;;;21.50;9.80;;;;;;;6.46;100.00;100992.59;3357963;86;99006;-85
2021/11/18 02:35:44;;;;;;;22.63;10.63;;;;;;;6.47;100.00;100983.80;3353272;85;98916;-86
2021/11/18 02:40:46;;;;;;;21.30;10.57;;;;;;;6.47;100.00;100995.55;3361334;86;99109;-87
2021/11/18 02:45:50;;;;;;;28.83;11.20;;;;;;;6.47;100.00;100996.92;3354942;85;101674;-86
2021/11/18 02:50:56;;;;;;;24.00;10.27;;;;;;;6.48;100.00;100988.94;3357275;86;99587;-86
2021/11/18 02:55:57;;;;;;;20.07;9.67;;;;;;;6.49;100.00;100999.32;3346958;86;111110;-86
2021/11/18 03:01:09;;;;;;;23.87;10.53;;;;;;;6.49;100.00;100997.38;3360510;86;98936;-86
2021/11/18 03:06:11;;;;;;;27.90;11.10;;;;;;;6.50;100.00;100996.23;3351939;86;98890;-86
2021/11/18 03:11:12;;;;;;;25.57;9.87;;;;;;;6.52;100.00;101014.48;3360643;86;99066;-86
2021/11/18 03:16:14;;;;;;;23.20;9.47;;;;;;;6.53;100.00;101007.88;3356525;86;98833;-86
2021/11/18 03:21:19;;;;;;;27.57;10.73;;;;;;;6.55;100.00;101011.06;3358377;86;98959;-86
2021/11/18 03:26:25;;;;;;;23.67;10.67;;;;;;;6.57;100.00;101005.27;3384718;85;38486;-86
2021/11/18 03:31:27;;;;;;;25.43;10.30;;;;;;;6.58;100.00;101006.30;3392450;85;99142;-86
2021/11/18 03:36:29;;;;;;;25.10;10.57;;;;;;;6.57;100.00;101006.08;3401716;85;98926;-86
2021/11/18 03:41:33;;;;;;;25.10;9.63;;;;;;;6.56;100.00;101011.33;3398285;84;99156;-86
2021/11/18 03:46:52;;;;;;;21.83;10.77;;;;;;;6.53;100.00;101013.34;3395997;85;98885;-86
2021/11/18 03:51:56;;;;;;;20.20;9.05;;;;;;;6.50;100.00;101016.73;3376337;85;99501;-86
2021/11/18 03:56:57;;;;;;;25.40;10.43;;;;;;;6.49;100.00;101026.67;3421980;84;98925;-86
2021/11/18 04:01:59;;;;;;;20.87;9.27;;;;;;;6.44;100.00;101034.48;3431216;84;99084;-86
2021/11/18 04:07:00;;;;;;;19.32;9.05;;;;;;;6.43;100.00;101031.52;3386572;85;98738;-86
2021/11/18 04:12:01;;;;;;;21.20;9.03;;;;;;;6.43;100.00;101030.74;3386613;85;99058;-86
2021/11/18 04:17:03;;;;;;;24.80;9.90;;;;;;;6.43;100.00;101043.83;3403332;85;99254;-86
2021/11/18 04:22:05;;;;;;;24.47;11.07;;;;;;;6.43;100.00;101047.93;3373635;86;98866;-84
2021/11/18 04:27:06;;;;;;;21.97;10.43;;;;;;;6.44;100.00;101061.83;3413956;84;98994;-85
2021/11/18 04:32:15;;;;;;;23.40;10.27;;;;;;;6.46;100.00;101060.13;3413221;83;98601;-86
2021/11/18 04:37:17;;;;;;;22.00;10.40;;;;;;;6.47;100.00;101068.01;3375360;84;98856;-85
2021/11/18 04:42:20;;;;;;;22.15;10.23;;;;;;;6.47;100.00;101064.46;3381449;84;98995;-85
2021/11/18 04:47:21;;;;;;;27.03;9.97;;;;;;;6.46;100.00;101057.40;3391078;84;99143;-86
2021/11/18 04:52:22;;;;;;;20.40;9.73;;;;;;;6.46;100.00;101066.41;3386021;84;98907;-85
2021/11/18 04:57:28;;;;;;;22.13;10.43;;;;;;;6.45;100.00;101073.58;3392884;85;98810;-86
2021/11/18 05:02:26;;;;;;;24.27;9.83;;;;;;;6.42;100.00;101068.77;3385989;84;99197;-85
2021/11/18 05:07:26;;;;;;;23.70;9.20;;;;;;;6.40;100.00;101081.42;3388652;85;98660;-86
2021/11/18 05:12:27;;;;;;;27.58;11.33;;;;;;;6.37;100.00;101080.70;3385777;84;99105;-86
2021/11/18 05:17:28;;;;;;;20.13;9.03;;;;;;;6.35;100.00;101077.52;3389583;84;99041;-86
2021/11/18 05:22:29;;;;;;;21.53;9.80;;;;;;;6.34;100.00;101088.20;3332421;86;98982;-86
2021/11/18 05:27:29;;;;;;;24.47;9.00;;;;;;;6.34;100.00;101080.58;3367359;85;98850;-85
2021/11/18 05:32:30;;;;;;;23.22;9.25;;;;;;;6.35;100.00;101084.35;3359049;86;98584;-87
2021/11/18 05:37:31;;;;;;;22.20;9.73;;;;;;;6.37;100.00;101083.99;3382684;86;98709;-86
2021/11/18 05:42:32;;;;;;;24.40;9.38;;;;;;;6.38;100.00;101082.89;3378622;85;98661;-86
2021/11/18 05:47:33;;;;;;;21.20;8.17;;;;;;;6.38;100.00;101102.81;3388130;85;98939;-86
2021/11/18 05:52:34;;;;;;;21.60;9.80;;;;;;;6.38;100.00;101098.70;3373276;86;99272;-85
2021/11/18 05:57:35;;;;;;;20.90;8.93;;;;;;;6.38;100.00;101102.03;3384407;85;98854;-86
2021/11/18 06:02:36;;;;;;;21.67;10.20;;;;;;;6.38;100.00;101104.76;3350814;86;99039;-85
2021/11/18 06:07:37;;;;;;;22.27;8.63;;;;;;;6.37;100.00;101105.31;3377137;85;98880;-86
2021/11/18 06:12:39;;;;;;;16.87;7.83;;;;;;;6.37;100.00;101116.25;3372386;85;98767;-86
2021/11/18 06:17:39;;;;;;;21.37;8.77;;;;;;;6.38;100.00;101117.06;3374869;85;98743;-85
2021/11/18 06:22:41;;;;;;;22.05;8.80;;;;;;;6.39;100.00;101123.54;3371915;85;98902;-86
2021/11/18 06:27:45;;;;;;;19.60;9.57;;;;;;;6.41;100.00;101125.39;3392577;85;98814;-86
2021/11/18 06:32:46;;;;;;;21.97;9.40;;;;;;;6.42;100.00;101143.95;3392235;85;98567;-86
2021/11/18 06:37:49;;;;;;;20.97;9.50;;;;;;;6.44;100.00;101137.60;3409797;84;98396;-85
2021/11/18 06:42:50;;;;;;;20.73;9.90;;;;;;;6.45;100.00;101144.66;3406855;85;98702;-86
2021/11/18 06:47:51;;;;;;;25.00;9.37;;;;;;;6.46;100.00;101138.06;3408382;85;98883;-87
2021/11/18 06:52:52;;;;;;;20.70;8.23;;;;;;;6.45;100.00;101140.01;3401442;84;99139;-87
2021/11/18 06:57:53;;;;;;;22.30;7.50;;;;;;;6.47;100.00;101137.73;3407636;85;98907;-88
2021/11/18 07:02:53;;;;;;;20.17;8.60;;;;;;;6.49;100.00;101140.14;3405893;85;98921;-87
2021/11/18 07:07:54;;;;;;;25.87;9.70;;;;;;;6.50;100.00;101138.42;3413575;85;32508;-86
2021/11/18 07:12:55;;;;;;;19.45;7.70;;;;;;;6.53;100.00;101149.27;3398621;84;99125;-87
2021/11/18 07:17:57;;;;;;;18.35;7.45;;;;;;;6.55;100.00;101144.28;3404023;85;99590;-87
2021/11/18 07:22:58;;;;;;;17.42;7.33;;;;;;;6.57;100.00;101157.86;3397696;85;99035;-88
2021/11/18 07:28:01;;;;;;;19.75;7.12;;;;;;;6.60;100.00;101163.23;3363051;85;99322;-90
2021/11/18 07:33:03;;;;;;;22.57;8.40;;;;;;;6.62;100.00;101160.95;3380753;85;98883;-90
2021/11/18 07:38:04;;;;;;;20.13;7.33;;;;;;;6.68;99.77;101165.09;3388759;85;30111;-91
2021/11/18 07:43:08;;;;;;;19.87;7.50;;;;;;;6.71;99.73;101168.54;3383992;85;98786;-89
2021/11/18 07:48:08;;;;;;;17.03;7.53;;;;;;;6.76;99.71;101172.45;3389505;84;98746;-90
2021/11/18 07:53:10;;;;;;;18.17;7.60;;;;;;;6.79;99.45;101193.09;3381410;85;98960;-89
2021/11/18 07:58:11;;;;;;;25.80;8.40;;;;;;;6.85;99.37;101195.86;3356145;85;153094;-90
2021/11/18 08:03:14;;;;;;;21.90;8.00;;;;;;;6.92;99.09;101196.13;3380802;84;98819;-90
2021/11/18 08:08:15;;;;;;;18.83;7.53;;;;;;;6.98;99.26;101198.89;3392097;84;32606;-88
2021/11/18 08:13:16;;;;;;;20.27;7.83;;;;;;;7.07;98.78;101210.58;3384148;85;98682;-92
2021/11/18 08:18:17;;;;;;;18.93;7.63;;;;;;;7.11;98.71;101207.97;3388921;85;98919;-87
2021/11/18 08:23:17;;;;;;;21.80;6.93;;;;;;;7.20;98.37;101223.17;3384436;85;99214;-89
2021/11/18 08:28:18;;;;;;;21.33;8.10;;;;;;;7.32;98.79;101223.81;3404007;84;98850;-88
2021/11/18 08:33:20;;;;;;;20.00;7.37;;;;;;;7.49;98.18;101220.91;3405175;85;98784;-90
2021/11/18 08:38:22;;;;;;;19.40;7.07;;;;;;;7.70;97.64;101222.45;3349184;86;26608;-90
2021/11/18 08:43:24;;;;;;;20.30;6.90;;;;;;;7.92;96.91;101211.67;3406030;85;98642;-91
2021/11/18 08:48:24;;;;;;;20.00;7.90;;;;;;;7.99;96.42;101203.67;3290113;88;98603;-91
2021/11/18 08:53:30;;;;;;;22.32;8.15;;;;;;;8.06;95.94;101214.87;3337949;87;99148;-89
2021/11/18 08:58:36;;;;;;;26.03;7.50;;;;;;;8.10;95.57;101226.20;3348978;86;98761;-88
2021/11/18 09:03:39;;;;;;;17.83;6.47;;;;;;;8.13;95.56;101220.02;3339676;86;98788;-88
2021/11/18 09:08:41;;;;;;;17.70;6.33;;;;;;;8.12;95.08;101209.42;3345946;87;28248;-89
2021/11/18 09:13:45;;;;;;;17.40;6.60;;;;;;;8.22;95.30;101206.23;3341233;86;98713;-89
2021/11/18 09:18:46;;;;;;;14.33;6.28;;;;;;;8.27;94.92;101212.86;3345761;86;98573;-89
2021/11/18 09:23:52;;;;;;;17.67;6.90;;;;;;;8.30;95.19;101212.20;3341629;86;98636;-88
2021/11/18 09:28:53;;;;;;;21.30;7.78;;;;;;;8.40;94.77;101181.58;3373668;85;99225;-88
2021/11/18 09:33:55;;;;;;;16.93;8.30;;;;;;;8.58;94.07;101185.66;3383395;84;98697;-89
2021/11/18 09:38:59;;;;;;;20.15;6.85;;;;;;;8.79;94.22;101215.91;3390062;84;98746;-88
2021/11/18 09:44:31;;;;;;;19.05;7.03;;;;;;;8.97;94.17;101220.58;3386170;85;98972;-88
2021/11/18 09:50:00;;;;;;;23.02;8.75;;;;;;;9.09;92.92;101224.66;3387609;84;98530;-89
2021/11/18 09:55:22;;;;;;;17.43;7.43;;;;;;;9.00;92.35;101224.80;3383334;85;98625;-88
2021/11/18 10:00:43;;;;;;;21.40;7.17;;;;;;;8.88;92.35;101224.83;3384114;84;98994;-90
2021/11/18 10:05:56;;;;;;;20.00;7.83;;;;;;;8.89;92.50;101221.52;3384157;85;98872;-88
2021/11/18 10:11:32;;;;;;;20.03;6.60;;;;;;;9.02;92.84;101194.25;3385739;85;99081;-88
2021/11/18 10:16:44;;;;;;;20.10;7.97;;;;;;;9.05;92.38;101195.72;3386830;84;98640;-90
2021/11/18 10:21:45;;;;;;;23.38;7.08;;;;;;;9.06;92.39;101198.69;3384871;84;99093;-88
2021/11/18 10:26:57;;;;;;;19.27;6.90;;;;;;;9.14;92.19;101224.41;3395449;84;45376;-86
2021/11/18 10:32:07;;;;;;;15.90;6.37;;;;;;;9.17;91.05;101199.02;3384548;84;98700;-88
2021/11/18 10:37:22;;;;;;;21.30;7.20;;;;;;;9.26;91.52;101201.84;3357909;86;98522;-86
2021/11/18 10:42:40;;;;;;;21.45;7.10;;;;;;;9.42;91.52;101219.73;3358861;86;98764;-86
2021/11/18 10:48:00;;;;;;;28.77;7.40;;;;;;;9.50;91.27;101233.34;3388431;85;98705;-88
2021/11/18 10:53:22;;;;;;;17.48;6.22;;;;;;;9.53;91.25;101251.05;3330579;85;99163;-86
2021/11/18 10:58:31;;;;;;;22.33;8.13;;;;;;;9.61;90.58;101241.31;3344416;86;98847;-88
2021/11/18 11:03:40;;;;;;;21.85;6.87;;;;;;;9.65;90.07;101227.07;3382240;85;99695;-87
2021/11/18 11:08:51;;;;;;;16.12;5.75;;;;;;;9.66;90.02;101220.41;3389229;85;54880;-87
2021/11/18 11:14:13;;;;;;;22.42;6.45;;;;;;;9.72;90.52;101212.17;3378578;85;98764;-88
2021/11/18 11:19:35;;;;;;;16.60;5.87;;;;;;;9.73;89.58;101201.39;3391066;85;97703;-87
2021/11/18 11:25:02;;;;;;;19.00;7.25;;;;;;;9.73;89.59;101206.89;3383294;85;98793;-86
2021/11/18 11:30:38;;;;;;;22.25;7.55;;;;;;;9.75;89.37;101210.07;3386994;85;99388;-85
2021/11/18 11:35:44;;;;;;;23.67;7.27;;;;;;;9.88;89.29;101209.43;3362814;85;98751;-86
2021/11/18 11:41:25;;;;;;;14.93;5.42;;;;;;;10.00;89.40;101199.72;3421889;84;98866;-86
2021/11/18 11:46:41;;;;;;;20.12;6.78;;;;;;;10.01;88.21;101186.19;3385373;85;99387;-88
2021/11/18 11:51:55;;;;;;;20.07;6.43;;;;;;;9.90;88.24;101191.99;3381805;85;98958;-87
2021/11/18 11:57:04;;;;;;;20.70;6.83;;;;;;;9.89;88.23;101178.03;3390897;85;38852;-86
2021/11/18 12:02:16;;;;;;;18.67;6.17;;;;;;;9.88;87.98;101172.31;3415514;83;98516;-86
2021/11/18 12:07:34;;;;;;;17.13;6.80;;;;;;;9.85;87.98;101177.94;3363317;85;98575;-87
2021/11/18 12:12:43;;;;;;;18.32;5.03;;;;;;;9.78;88.11;101171.45;3360014;86;98780;-85
2021/11/18 12:18:04;;;;;;;18.73;5.87;;;;;;;9.70;88.27;101163.59;3433294;84;98793;-88
2021/11/18 12:23:14;;;;;;;17.07;5.97;;;;;;;9.68;88.25;101166.48;3354552;85;99264;-86
2021/11/18 12:28:33;;;;;;;19.98;6.12;;;;;;;9.65;88.23;101165.23;3416481;84;296205;-88
2021/11/18 12:33:54;;;;;;;19.10;6.17;;;;;;;9.57;87.93;101179.95;3324393;86;99275;-85
2021/11/18 12:39:33;;;;;;;23.52;6.50;;;;;;;9.48;88.16;101184.80;3389776;85;31076;-86
2021/11/18 12:45:02;;;;;;;16.17;6.50;;;;;;;9.42;88.57;101189.52;3354431;85;98646;-87
2021/11/18 12:50:33;;;;;;;22.30;6.37;;;;;;;9.34;88.89;101171.25;3388633;84;98506;-86
2021/11/18 12:56:05;;;;;;;17.73;7.62;;;;;;;9.27;88.95;101160.85;3344821;86;98544;-87
2021/11/18 13:01:26;;;;;;;16.60;6.80;;;;;;;9.22;89.12;101153.45;3403287;85;98896;-86
2021/11/18 13:06:41;;;;;;;17.87;6.80;;;;;;;9.18;89.58;101149.24;3380676;85;99061;-87
2021/11/18 13:11:54;;;;;;;18.42;7.53;;;;;;;9.14;89.85;101144.22;3381633;85;98742;-87
2021/11/18 13:17:09;;;;;;;16.80;6.97;;;;;;;9.12;90.05;101148.45;3335021;86;98005;-86
2021/11/18 13:22:24;;;;;;;18.80;6.30;;;;;;;9.07;90.30;101150.89;3351107;86;98696;-87
2021/11/18 13:27:39;;;;;;;23.13;7.97;;;;;;;9.04;90.47;101136.47;3300476;86;31429;-87
2021/11/18 13:32:47;;;;;;;18.73;7.57;;;;;;;9.01;90.67;101128.95;3388627;84;98748;-86
2021/11/18 13:37:52;;;;;;;15.38;6.20;;;;;;;9.00;90.94;101121.05;3391356;85;98513;-87
2021/11/18 13:43:13;;;;;;;23.98;7.47;;;;;;;9.01;91.10;101125.39;3379347;84;98936;-87
2021/11/18 13:48:17;;;;;;;17.03;6.43;;;;;;;8.98;91.15;101146.67;3389399;84;98819;-87
2021/11/18 13:53:30;;;;;;;18.90;7.33;;;;;;;8.96;91.27;101155.28;3383195;84;98615;-84
2021/11/18 13:58:43;;;;;;;21.70;6.42;;;;;;;8.95;91.40;101139.15;3388022;84;98557;-86
2021/11/18 14:03:51;;;;;;;18.40;6.37;;;;;;;8.94;91.69;101149.31;3383703;84;98577;-88
2021/11/18 14:09:01;;;;;;;22.98;6.58;;;;;;;8.93;91.72;101131.81;3402213;85;98370;-86
2021/11/18 14:14:35;;;;;;;21.82;6.55;;;;;;;8.92;91.81;101127.48;3392468;85;98689;-86
2021/11/18 14:19:42;;;;;;;16.82;6.10;;;;;;;8.91;92.00;101122.58;3386896;84;98930;-86
2021/11/18 14:24:47;;;;;;;19.05;5.97;;;;;;;8.90;92.17;101127.82;3387487;83;98674;-86
2021/11/18 14:30:01;;;;;;;19.33;6.70;;;;;;;8.90;92.17;101133.31;3406136;85;98766;-88
2021/11/18 14:35:37;;;;;;;17.95;7.30;;;;;;;8.88;92.12;101120.52;3351519;86;98746;-87
2021/11/18 14:40:55;;;;;;;19.03;6.90;;;;;;;8.87;92.31;101130.47;3413313;84;98672;-86
2021/11/18 14:46:39;;;;;;;20.03;6.63;;;;;;;8.87;92.32;101126.34;3408758;84;98832;-88
2021/11/18 14:51:47;;;;;;;19.15;6.80;;;;;;;8.84;92.36;101129.22;3406317;84;98345;-86
2021/11/18 14:56:51;;;;;;;27.10;8.13;;;;;;;8.81;92.56;101139.53;3359825;86;98771;-87
2021/11/18 15:02:03;;;;;;;18.07;8.08;;;;;;;8.79;92.80;101130.05;3409618;85;98622;-85
2021/11/18 15:07:09;;;;;;;23.10;7.62;;;;;;;8.77;93.00;101135.09;3415448;85;98733;-86
2021/11/18 15:12:18;;;;;;;22.00;8.05;;;;;;;8.76;93.23;101127.98;3407934;85;98807;-86
2021/11/18 15:17:19;;;;;;;25.60;9.50;;;;;;;8.76;93.40;101132.10;3413900;85;99112;-86
2021/11/18 15:22:25;;;;;;;18.90;8.70;;;;;;;8.74;93.59;101133.03;3357716;86;98829;-85
2021/11/18 15:27:28;;;;;;;23.07;9.27;;;;;;;8.72;93.79;101123.77;3395675;85;28188;-85
2021/11/18 15:32:32;;;;;;;26.25;11.03;;;;;;;8.71;93.97;101112.57;3426054;84;98732;-86
2021/11/18 15:37:34;;;;;;;24.75;10.35;;;;;;;8.71;94.18;101107.64;3412977;85;98738;-84
2021/11/18 15:42:35;;;;;;;27.93;12.47;;;;;;;8.69;94.38;101100.34;3411832;84;99373;-86
2021/11/18 15:47:36;;;;;;;26.27;10.43;;;;;;;8.68;94.55;101098.75;3390662;85;98986;-84
2021/11/18 15:52:37;;;;;;;28.60;10.17;;;;;;;8.68;94.72;101094.64;3385108;84;98981;-85
2021/11/18 15:57:38;;;;;;;26.37;9.87;;;;;;;8.65;94.77;101094.76;3418386;84;37831;-85
2021/11/18 16:02:40;;;;;;;28.23;9.53;;;;;;;8.64;94.94;101102.77;3417062;85;98758;-84
2021/11/18 16:07:43;;;;;;;27.33;9.33;;;;;;;8.64;95.03;101118.42;3406164;84;98621;-83
2021/11/18 16:12:44;;;;;;;27.87;10.40;;;;;;;8.64;95.06;101106.08;3414280;83;98751;-85
2021/11/18 16:17:44;;;;;;;27.90;11.57;;;;;;;8.63;95.17;101091.57;3429962;84;98875;-85
2021/11/18 16:22:46;;;;;;;30.40;11.23;;;;;;;8.64;95.22;101106.88;3403038;85;99035;-85
2021/11/18 16:27:47;;;;;;;53.83;21.90;;;;;;;8.62;95.34;101106.41;3423622;84;25964;-85
2021/11/18 16:32:54;;;;;;;25.47;11.70;;;;;;;8.62;95.39;101101.52;3406553;83;98950;-85
2021/11/18 16:37:55;;;;;;;29.25;12.25;;;;;;;8.64;95.42;101106.08;3414556;85;98674;-84
2021/11/18 16:42:57;;;;;;;28.83;10.60;;;;;;;8.64;95.52;101112.94;3398075;85;99270;-84
2021/11/18 16:48:00;;;;;;;32.65;13.72;;;;;;;8.65;95.63;101124.13;3421780;85;99457;-85
2021/11/18 16:53:03;;;;;;;28.62;13.03;;;;;;;8.65;95.69;101106.30;3398101;85;99319;-84
2021/11/18 16:58:04;;;;;;;28.87;11.90;;;;;;;8.65;95.73;101104.92;3408702;85;98892;-86
2021/11/18 17:03:06;;;;;;;29.17;11.60;;;;;;;8.65;95.78;101103.55;3408434;85;98917;-83
2021/11/18 17:08:09;;;;;;;28.43;12.20;;;;;;;8.64;95.87;101090.42;3402950;84;111260;-84
2021/11/18 17:13:11;;;;;;;35.10;12.18;;;;;;;8.65;95.89;101082.41;3404455;85;99587;-85
2021/11/18 17:18:15;;;;;;;23.40;11.67;;;;;;;8.66;95.92;101066.73;3412802;85;98943;-84
2021/11/18 17:23:16;;;;;;;24.77;10.20;;;;;;;8.66;96.10;101070.28;3417652;83;99259;-84
2021/11/18 17:28:17;;;;;;;30.23;11.63;;;;;;;8.66;96.34;101063.98;3426292;84;98852;-83
2021/11/18 17:33:19;;;;;;;29.77;11.80;;;;;;;8.64;96.42;101056.12;3412735;83;99185;-84
2021/11/18 17:38:28;;;;;;;32.30;12.03;;;;;;;8.66;96.46;101068.09;3379107;85;99115;-86
2021/11/18 17:43:28;;;;;;;25.50;11.28;;;;;;;8.64;96.48;101045.70;3372987;85;99255;-85
2021/11/18 17:48:30;;;;;;;29.67;11.70;;;;;;;8.65;96.47;101054.97;3395843;85;99313;-85
2021/11/18 17:53:31;;;;;;;30.57;11.47;;;;;;;8.66;96.34;101055.75;3391731;85;99260;-84
2021/11/18 17:58:35;;;;;;;21.20;11.00;;;;;;;8.66;96.34;101061.23;3382953;85;99045;-85
2021/11/18 18:03:43;;;;;;;25.57;12.82;;;;;;;8.67;96.28;101049.92;3415083;84;98561;-85
2021/11/18 18:08:45;;;;;;;22.83;10.87;;;;;;;8.68;96.11;101038.38;3412608;85;98760;-85
2021/11/18 18:13:46;;;;;;;26.17;11.12;;;;;;;8.69;96.01;101039.97;3350047;86;99215;-84
2021/11/18 18:18:47;;;;;;;24.57;10.50;;;;;;;8.70;95.86;101025.91;3397243;85;99266;-85
2021/11/18 18:23:49;;;;;;;21.40;9.80;;;;;;;8.72;95.70;101018.12;3382205;85;99048;-86
2021/11/18 18:28:50;;;;;;;32.53;10.20;;;;;;;8.72;95.66;101022.23;3385381;85;99507;-85
2021/11/18 18:33:52;;;;;;;20.53;9.37;;;;;;;8.75;95.62;101017.43;3373614;85;98896;-86
2021/11/18 18:38:55;;;;;;;22.03;10.30;;;;;;;8.76;95.45;101023.14;3385107;85;98472;-84
2021/11/18 18:43:59;;;;;;;23.32;9.10;;;;;;;8.78;95.36;101027.69;3388841;85;99002;-85
2021/11/18 18:49:00;;;;;;;22.07;10.00;;;;;;;8.79;95.29;101007.92;3385237;85;99136;-85
2021/11/18 18:54:02;;;;;;;32.20;9.93;;;;;;;8.80;95.04;101003.45;3371179;85;98968;-85
2021/11/18 18:59:08;;;;;;;30.47;11.07;;;;;;;8.81;95.11;101009.16;3378703;85;99163;-84
2021/11/18 19:04:10;;;;;;;23.40;6.87;;;;;;;8.82;94.95;100988.80;3382197;85;99244;-84
2021/11/18 19:09:13;;;;;;;20.97;9.30;;;;;;;8.83;94.87;100988.23;3393260;85;29699;-86
2021/11/18 19:14:16;;;;;;;18.57;10.08;;;;;;;8.84;94.62;100976.10;3375078;85;98536;-85
2021/11/18 19:19:23;;;;;;;19.50;8.97;;;;;;;8.84;94.56;100963.75;3381764;85;98819;-85
2021/11/18 19:24:23;;;;;;;21.97;11.53;;;;;;;8.83;94.65;100972.55;3383893;85;99028;-86
2021/11/18 19:34:55;;;;;;;20.95;9.20;;;;;;;8.81;94.85;100959.77;3336834;85;99561;-84
2021/11/18 19:39:58;;;;;;;29.18;9.75;;;;;;;8.81;94.87;100939.73;3345560;85;98754;-86
2021/11/18 19:45:01;;;;;;;25.92;9.15;;;;;;;8.79;94.96;100924.20;3339795;86;98597;-83
2021/11/18 19:50:06;;;;;;;20.20;8.67;;;;;;;8.78;95.00;100913.02;3343147;87;98503;-85
2021/11/18 19:55:12;;;;;;;17.97;8.47;;;;;;;8.77;95.18;100927.30;3331768;87;98898;-86
2021/11/18 20:00:28;;;;;;;20.27;9.20;;;;;;;8.75;95.64;100925.49;3391310;85;98814;-86
2021/11/18 20:05:33;;;;;;;22.97;9.37;;;;;;;8.70;96.15;100937.29;3388590;85;98703;-85
2021/11/18 20:10:37;;;;;;;19.03;8.47;;;;;;;8.63;96.79;100932.44;3389458;85;98634;-86
2021/11/18 20:15:43;;;;;;;23.20;8.63;;;;;;;8.58;97.46;100949.70;3388737;85;98789;-85
2021/11/18 20:26:10;;;;;;;20.60;10.20;;;;;;;8.47;98.59;100922.56;3437192;84;98720;-86
2021/11/18 20:31:16;;;;;;;31.02;12.13;;;;;;;8.39;99.49;100910.59;3444354;84;98903;-85
2021/11/18 20:36:21;;;;;;;19.02;9.28;;;;;;;8.35;99.92;100908.91;3508321;82;98795;-86
2021/11/18 20:41:27;;;;;;;20.05;8.88;;;;;;;8.29;100.00;100915.80;3499742;82;98735;-86
2021/11/18 20:46:32;;;;;;;19.52;8.33;;;;;;;8.25;100.00;100897.08;3520759;82;99148;-85
2021/11/18 20:51:47;;;;;;;22.40;8.40;;;;;;;8.21;100.00;100909.88;3471942;84;98797;-86
2021/11/18 20:56:56;;;;;;;21.57;9.13;;;;;;;8.17;100.00;100897.41;3510894;82;98452;-86
2021/11/18 21:02:03;;;;;;;16.35;8.23;;;;;;;8.15;100.00;100900.28;3490819;83;98674;-85
2021/11/18 21:07:07;;;;;;;18.87;7.50;;;;;;;8.11;100.00;100900.19;3448583;84;98912;-87
2021/11/18 21:12:13;;;;;;;17.43;8.07;;;;;;;8.11;100.00;100894.70;3461538;82;98864;-86
2021/11/18 21:17:18;;;;;;;15.78;7.87;;;;;;;7.98;100.00;100873.17;3495099;82;98933;-87
2021/11/18 21:22:25;;;;;;;15.80;7.90;;;;;;;8.10;100.00;100879.41;3461717;82;98943;-86
2021/11/18 21:27:25;;;;;;;16.00;7.37;;;;;;;8.09;100.00;100863.30;3475785;84;31460;-85
2021/11/18 21:32:28;;;;;;;19.10;10.47;;;;;;;8.06;100.00;100872.21;3403022;84;98951;-85
2021/11/18 21:37:31;;;;;;;19.23;8.87;;;;;;;8.06;100.00;100882.61;3332629;86;106866;-85
2021/11/18 21:42:32;;;;;;;18.87;9.53;;;;;;;8.03;100.00;100883.33;3341992;86;99238;-86
2021/11/18 21:47:55;;;;;;;15.60;8.10;;;;;;;8.01;100.00;100867.78;3331905;86;99427;-87
2021/11/18 21:52:58;;;;;;;15.00;7.67;;;;;;;7.98;100.00;100889.05;3336767;86;98898;-86
2021/11/18 21:58:01;;;;;;;16.87;8.27;;;;;;;7.96;100.00;100884.47;3392717;85;98907;-88
2021/11/18 22:03:06;;;;;;;15.05;7.45;;;;;;;7.96;100.00;100886.44;3275493;84;6971803;-89
2021/11/18 22:08:08;;;;;;;17.37;8.27;;;;;;;7.95;100.00;100880.70;3414829;85;99431;-87
2021/11/18 22:13:12;;;;;;;15.83;7.63;;;;;;;7.94;100.00;100873.08;3406056;85;99362;-86
2021/11/18 22:18:18;;;;;;;13.77;7.07;;;;;;;7.92;100.00;100863.02;3372792;85;98889;-86
2021/11/18 22:23:17;;;;;;;13.70;6.53;;;;;;;7.93;100.00;100864.63;3411796;83;98867;-88
2021/11/18 22:28:22;;;;;;;15.20;7.93;;;;;;;7.93;100.00;100850.13;3456652;83;98850;-88
2021/11/18 22:33:24;;;;;;;12.63;7.13;;;;;;;7.92;100.00;100845.20;3435926;84;98738;-89
2021/11/18 22:38:26;;;;;;;15.10;7.00;;;;;;;7.91;100.00;100834.02;3476818;83;98713;-88
2021/11/18 22:43:28;;;;;;;11.78;7.12;;;;;;;7.92;100.00;100832.87;3487517;83;99048;-89
2021/11/18 22:48:28;;;;;;;13.27;6.07;;;;;;;7.92;100.00;100827.39;3412005;82;99005;-89
2021/11/18 22:53:30;;;;;;;13.50;7.33;;;;;;;7.92;100.00;100823.28;3469761;82;99227;-90
2021/11/18 22:58:32;;;;;;;11.50;5.73;;;;;;;7.94;100.00;100813.34;3489550;82;98857;-90
2021/11/18 23:03:37;;;;;;;12.50;6.47;;;;;;;7.94;100.00;100803.19;3488235;82;98873;-93
2021/11/18 23:08:39;;;;;;;11.10;5.77;;;;;;;7.93;100.00;100798.86;3512864;82;98541;-93
2021/11/18 23:13:45;;;;;;;12.35;5.35;;;;;;;7.92;100.00;100808.20;3463271;82;98648;-89
2021/11/18 23:18:49;;;;;;;10.40;5.28;;;;;;;7.93;100.00;100809.82;3463396;82;98153;-91
2021/11/18 23:23:50;;;;;;;10.10;5.25;;;;;;;7.93;100.00;100811.19;3487027;82;98878;-92
2021/11/18 23:28:56;;;;;;;14.40;5.83;;;;;;;7.94;100.00;100794.97;3485597;82;98905;-90
2021/11/18 23:33:58;;;;;;;10.75;5.85;;;;;;;7.96;100.00;100795.99;3496004;82;98881;-90
2021/11/18 23:38:58;;;;;;;12.53;6.00;;;;;;;7.96;100.00;100782.29;3503922;82;34586;-90
2021/11/18 23:43:59;;;;;;;10.87;5.57;;;;;;;7.97;100.00;100794.25;3508384;82;99079;-93